sensor_id;sensor_type;location;lat;lon;timestamp;P1;durP1;ratioP1;P2;durP2;ratioP2
56519;SDS011;42420;53.586;10.052;2024-01-15T00:01:56;6.93;;;0.93;;
56519;SDS011;42420;53.586;10.052;2024-01-15T00:06:53;9.77;;;1.30;;
56519;SDS011;42420;53.586;10.052;2024-01-15T00:16:47;8.82;;;1.50;;
56519;SDS011;42420;53.586;10.052;2024-01-15T00:21:46;8.38;;;2.58;;
56519;SDS011;42420;53.586;10.052;2024-01-15T00:26:43;6.65;;;1.50;;
56519;SDS011;42420;53.586;10.052;2024-01-15T00:31:40;10.10;;;2.00;;
56519;SDS011;42420;53.586;10.052;2024-01-15T00:36:36;7.28;;;1.48;;
56519;SDS011;42420;53.586;10.052;2024-01-15T00:41:34;11.52;;;1.50;;
56519;SDS011;42420;53.586;10.052;2024-01-15T00:46:31;6.47;;;1.33;;
56519;SDS011;42420;53.586;10.052;2024-01-15T00:51:27;13.75;;;2.03;;
56519;SDS011;42420;53.586;10.052;2024-01-15T00:56:24;9.75;;;1.25;;
56519;SDS011;42420;53.586;10.052;2024-01-15T01:06:18;8.40;;;1.10;;
56519;SDS011;42420;53.586;10.052;2024-01-15T01:11:15;11.70;;;2.35;;
56519;SDS011;42420;53.586;10.052;2024-01-15T01:16:12;6.70;;;2.17;;
56519;SDS011;42420;53.586;10.052;2024-01-15T01:26:06;15.02;;;3.45;;
56519;SDS011;42420;53.586;10.052;2024-01-15T01:35:59;12.27;;;1.95;;
56519;SDS011;42420;53.586;10.052;2024-01-15T01:40:57;9.98;;;1.48;;
56519;SDS011;42420;53.586;10.052;2024-01-15T01:45:57;10.52;;;1.60;;
56519;SDS011;42420;53.586;10.052;2024-01-15T01:50:57;9.02;;;1.63;;
56519;SDS011;42420;53.586;10.052;2024-01-15T01:55:56;9.98;;;1.55;;
56519;SDS011;42420;53.586;10.052;2024-01-15T02:00:53;7.75;;;1.70;;
56519;SDS011;42420;53.586;10.052;2024-01-15T02:05:51;6.18;;;1.27;;
56519;SDS011;42420;53.586;10.052;2024-01-15T02:10:49;9.15;;;1.50;;
56519;SDS011;42420;53.586;10.052;2024-01-15T02:15:45;12.02;;;1.70;;
56519;SDS011;42420;53.586;10.052;2024-01-15T02:20:42;14.00;;;1.50;;
56519;SDS011;42420;53.586;10.052;2024-01-15T02:25:41;8.48;;;1.50;;
56519;SDS011;42420;53.586;10.052;2024-01-15T02:30:39;7.53;;;1.42;;
56519;SDS011;42420;53.586;10.052;2024-01-15T02:35:37;7.85;;;1.67;;
56519;SDS011;42420;53.586;10.052;2024-01-15T02:40:34;9.15;;;1.90;;
56519;SDS011;42420;53.586;10.052;2024-01-15T02:45:30;9.93;;;1.60;;
56519;SDS011;42420;53.586;10.052;2024-01-15T02:50:27;10.50;;;1.67;;
56519;SDS011;42420;53.586;10.052;2024-01-15T02:55:24;12.10;;;1.70;;
56519;SDS011;42420;53.586;10.052;2024-01-15T03:00:24;6.32;;;1.58;;
56519;SDS011;42420;53.586;10.052;2024-01-15T03:05:21;8.60;;;1.73;;
56519;SDS011;42420;53.586;10.052;2024-01-15T03:10:17;7.95;;;1.38;;
56519;SDS011;42420;53.586;10.052;2024-01-15T03:15:14;7.60;;;1.35;;
56519;SDS011;42420;53.586;10.052;2024-01-15T03:20:11;8.98;;;1.17;;
56519;SDS011;42420;53.586;10.052;2024-01-15T03:25:07;10.35;;;1.35;;
56519;SDS011;42420;53.586;10.052;2024-01-15T03:30:04;8.90;;;1.42;;
56519;SDS011;42420;53.586;10.052;2024-01-15T03:35:01;12.23;;;3.08;;
56519;SDS011;42420;53.586;10.052;2024-01-15T03:39:59;12.70;;;1.90;;
56519;SDS011;42420;53.586;10.052;2024-01-15T03:44:55;13.18;;;1.88;;
56519;SDS011;42420;53.586;10.052;2024-01-15T03:49:53;15.10;;;2.97;;
56519;SDS011;42420;53.586;10.052;2024-01-15T03:54:50;18.42;;;2.50;;
56519;SDS011;42420;53.586;10.052;2024-01-15T03:59:46;9.18;;;2.08;;
56519;SDS011;42420;53.586;10.052;2024-01-15T04:04:43;15.52;;;2.03;;
56519;SDS011;42420;53.586;10.052;2024-01-15T04:09:40;17.55;;;1.73;;
56519;SDS011;42420;53.586;10.052;2024-01-15T04:14:37;14.38;;;1.85;;
56519;SDS011;42420;53.586;10.052;2024-01-15T04:19:33;13.23;;;2.72;;
56519;SDS011;42420;53.586;10.052;2024-01-15T04:24:31;10.13;;;2.42;;
56519;SDS011;42420;53.586;10.052;2024-01-15T04:29:28;8.15;;;1.45;;
56519;SDS011;42420;53.586;10.052;2024-01-15T04:34:28;10.90;;;1.55;;
56519;SDS011;42420;53.586;10.052;2024-01-15T04:39:25;15.23;;;1.85;;
56519;SDS011;42420;53.586;10.052;2024-01-15T04:49:18;14.88;;;2.00;;
56519;SDS011;42420;53.586;10.052;2024-01-15T05:04:11;13.43;;;2.13;;
56519;SDS011;42420;53.586;10.052;2024-01-15T05:09:08;19.35;;;3.15;;
56519;SDS011;42420;53.586;10.052;2024-01-15T05:14:05;15.30;;;2.83;;
56519;SDS011;42420;53.586;10.052;2024-01-15T05:19:02;13.40;;;2.90;;
56519;SDS011;42420;53.586;10.052;2024-01-15T05:28:56;15.85;;;2.95;;
56519;SDS011;42420;53.586;10.052;2024-01-15T05:33:52;15.55;;;2.45;;
56519;SDS011;42420;53.586;10.052;2024-01-15T05:38:49;17.10;;;2.95;;
56519;SDS011;42420;53.586;10.052;2024-01-15T05:43:46;10.82;;;1.63;;
56519;SDS011;42420;53.586;10.052;2024-01-15T05:48:43;12.38;;;2.17;;
56519;SDS011;42420;53.586;10.052;2024-01-15T05:53:40;14.15;;;2.92;;
56519;SDS011;42420;53.586;10.052;2024-01-15T05:58:38;17.92;;;3.10;;
56519;SDS011;42420;53.586;10.052;2024-01-15T06:08:32;12.68;;;1.92;;
56519;SDS011;42420;53.586;10.052;2024-01-15T06:13:29;18.83;;;2.55;;
56519;SDS011;42420;53.586;10.052;2024-01-15T06:18:28;11.40;;;2.60;;
56519;SDS011;42420;53.586;10.052;2024-01-15T06:23:25;16.40;;;2.20;;
56519;SDS011;42420;53.586;10.052;2024-01-15T06:28:22;19.00;;;3.55;;
56519;SDS011;42420;53.586;10.052;2024-01-15T06:33:19;15.43;;;2.80;;
56519;SDS011;42420;53.586;10.052;2024-01-15T06:38:21;15.55;;;3.17;;
56519;SDS011;42420;53.586;10.052;2024-01-15T06:43:18;16.00;;;3.08;;
56519;SDS011;42420;53.586;10.052;2024-01-15T06:53:12;12.00;;;1.92;;
56519;SDS011;42420;53.586;10.052;2024-01-15T06:58:10;13.98;;;2.35;;
56519;SDS011;42420;53.586;10.052;2024-01-15T07:03:07;15.95;;;4.35;;
56519;SDS011;42420;53.586;10.052;2024-01-15T07:08:04;12.27;;;2.10;;
56519;SDS011;42420;53.586;10.052;2024-01-15T07:13:02;18.88;;;3.22;;
56519;SDS011;42420;53.586;10.052;2024-01-15T07:18:02;12.93;;;1.95;;
56519;SDS011;42420;53.586;10.052;2024-01-15T07:23:00;13.70;;;1.65;;
56519;SDS011;42420;53.586;10.052;2024-01-15T07:27:57;15.80;;;2.13;;
56519;SDS011;42420;53.586;10.052;2024-01-15T07:32:54;8.07;;;1.50;;
56519;SDS011;42420;53.586;10.052;2024-01-15T07:37:51;10.15;;;2.05;;
56519;SDS011;42420;53.586;10.052;2024-01-15T07:42:47;8.05;;;2.38;;
56519;SDS011;42420;53.586;10.052;2024-01-15T07:47:44;12.25;;;2.10;;
56519;SDS011;42420;53.586;10.052;2024-01-15T07:52:41;11.73;;;2.40;;
56519;SDS011;42420;53.586;10.052;2024-01-15T07:57:40;11.02;;;2.25;;
56519;SDS011;42420;53.586;10.052;2024-01-15T08:07:35;17.57;;;3.00;;
56519;SDS011;42420;53.586;10.052;2024-01-15T08:12:32;7.18;;;1.33;;
56519;SDS011;42420;53.586;10.052;2024-01-15T08:17:28;10.30;;;1.63;;
56519;SDS011;42420;53.586;10.052;2024-01-15T08:22:25;9.50;;;1.73;;
56519;SDS011;42420;53.586;10.052;2024-01-15T08:27:28;8.65;;;1.70;;
56519;SDS011;42420;53.586;10.052;2024-01-15T08:32:25;9.07;;;1.50;;
56519;SDS011;42420;53.586;10.052;2024-01-15T08:42:19;10.57;;;2.40;;
56519;SDS011;42420;53.586;10.052;2024-01-15T08:47:16;7.63;;;1.27;;
56519;SDS011;42420;53.586;10.052;2024-01-15T08:52:13;12.07;;;1.73;;
56519;SDS011;42420;53.586;10.052;2024-01-15T08:57:10;9.88;;;1.13;;
56519;SDS011;42420;53.586;10.052;2024-01-15T09:02:08;12.68;;;1.83;;
56519;SDS011;42420;53.586;10.052;2024-01-15T09:07:05;10.55;;;1.95;;
56519;SDS011;42420;53.586;10.052;2024-01-15T09:12:01;8.07;;;1.20;;
56519;SDS011;42420;53.586;10.052;2024-01-15T09:17:00;11.00;;;2.17;;
56519;SDS011;42420;53.586;10.052;2024-01-15T09:21:57;9.40;;;1.48;;
56519;SDS011;42420;53.586;10.052;2024-01-15T09:27:00;6.45;;;1.52;;
56519;SDS011;42420;53.586;10.052;2024-01-15T09:31:56;7.97;;;1.40;;
56519;SDS011;42420;53.586;10.052;2024-01-15T09:36:56;10.82;;;1.60;;
56519;SDS011;42420;53.586;10.052;2024-01-15T09:41:56;12.55;;;1.40;;
56519;SDS011;42420;53.586;10.052;2024-01-15T09:46:53;12.60;;;1.48;;
56519;SDS011;42420;53.586;10.052;2024-01-15T09:51:51;8.30;;;1.40;;
56519;SDS011;42420;53.586;10.052;2024-01-15T09:57:01;5.07;;;1.10;;
56519;SDS011;42420;53.586;10.052;2024-01-15T10:06:54;15.43;;;1.83;;
56519;SDS011;42420;53.586;10.052;2024-01-15T10:11:54;11.50;;;1.60;;
56519;SDS011;42420;53.586;10.052;2024-01-15T10:16:50;18.83;;;3.13;;
56519;SDS011;42420;53.586;10.052;2024-01-15T10:21:47;8.63;;;1.40;;
56519;SDS011;42420;53.586;10.052;2024-01-15T10:26:44;8.27;;;1.33;;
56519;SDS011;42420;53.586;10.052;2024-01-15T10:31:41;5.95;;;1.48;;
56519;SDS011;42420;53.586;10.052;2024-01-15T10:36:40;9.50;;;1.38;;
56519;SDS011;42420;53.586;10.052;2024-01-15T10:41:38;6.60;;;1.13;;
56519;SDS011;42420;53.586;10.052;2024-01-15T10:46:36;7.28;;;0.95;;
56519;SDS011;42420;53.586;10.052;2024-01-15T10:51:33;4.47;;;0.90;;
56519;SDS011;42420;53.586;10.052;2024-01-15T10:56:30;5.63;;;0.98;;
56519;SDS011;42420;53.586;10.052;2024-01-15T11:01:33;3.92;;;1.08;;
56519;SDS011;42420;53.586;10.052;2024-01-15T11:06:40;8.18;;;1.58;;
56519;SDS011;42420;53.586;10.052;2024-01-15T11:11:43;5.82;;;1.45;;
56519;SDS011;42420;53.586;10.052;2024-01-15T11:17:15;3.50;;;0.90;;
56519;SDS011;42420;53.586;10.052;2024-01-15T11:22:07;3.67;;;1.23;;
56519;SDS011;42420;53.586;10.052;2024-01-15T11:27:05;5.32;;;1.20;;
56519;SDS011;42420;53.586;10.052;2024-01-15T11:32:09;6.22;;;1.00;;
56519;SDS011;42420;53.586;10.052;2024-01-15T11:37:08;6.43;;;1.50;;
56519;SDS011;42420;53.586;10.052;2024-01-15T11:47:08;4.97;;;1.20;;
56519;SDS011;42420;53.586;10.052;2024-01-15T11:52:15;13.60;;;1.40;;
56519;SDS011;42420;53.586;10.052;2024-01-15T11:57:15;6.93;;;1.10;;
56519;SDS011;42420;53.586;10.052;2024-01-15T12:02:22;5.18;;;1.15;;
56519;SDS011;42420;53.586;10.052;2024-01-15T12:07:18;6.47;;;1.55;;
56519;SDS011;42420;53.586;10.052;2024-01-15T12:12:21;5.60;;;1.38;;
56519;SDS011;42420;53.586;10.052;2024-01-15T12:17:23;3.75;;;1.10;;
56519;SDS011;42420;53.586;10.052;2024-01-15T12:22:21;8.32;;;1.70;;
56519;SDS011;42420;53.586;10.052;2024-01-15T12:27:17;5.57;;;1.52;;
56519;SDS011;42420;53.586;10.052;2024-01-15T12:32:14;4.68;;;1.15;;
56519;SDS011;42420;53.586;10.052;2024-01-15T12:37:11;8.30;;;1.42;;
56519;SDS011;42420;53.586;10.052;2024-01-15T12:42:09;6.35;;;1.35;;
56519;SDS011;42420;53.586;10.052;2024-01-15T12:47:07;4.20;;;1.10;;
56519;SDS011;42420;53.586;10.052;2024-01-15T12:52:03;5.38;;;1.10;;
56519;SDS011;42420;53.586;10.052;2024-01-15T12:57:01;4.60;;;1.40;;
56519;SDS011;42420;53.586;10.052;2024-01-15T13:01:59;5.18;;;1.00;;
56519;SDS011;42420;53.586;10.052;2024-01-15T13:06:56;4.18;;;0.88;;
56519;SDS011;42420;53.586;10.052;2024-01-15T13:11:53;4.47;;;1.00;;
56519;SDS011;42420;53.586;10.052;2024-01-15T13:16:50;4.10;;;1.25;;
56519;SDS011;42420;53.586;10.052;2024-01-15T13:21:47;3.97;;;1.08;;
56519;SDS011;42420;53.586;10.052;2024-01-15T13:26:47;9.13;;;1.13;;
56519;SDS011;42420;53.586;10.052;2024-01-15T13:31:45;4.75;;;1.23;;
56519;SDS011;42420;53.586;10.052;2024-01-15T13:36:44;6.00;;;1.40;;
56519;SDS011;42420;53.586;10.052;2024-01-15T13:41:42;4.43;;;1.13;;
56519;SDS011;42420;53.586;10.052;2024-01-15T13:46:40;4.03;;;1.17;;
56519;SDS011;42420;53.586;10.052;2024-01-15T13:51:38;3.58;;;0.90;;
56519;SDS011;42420;53.586;10.052;2024-01-15T13:56:35;4.95;;;1.20;;
56519;SDS011;42420;53.586;10.052;2024-01-15T14:06:29;4.00;;;0.93;;
56519;SDS011;42420;53.586;10.052;2024-01-15T14:11:26;6.22;;;1.65;;
56519;SDS011;42420;53.586;10.052;2024-01-15T14:16:25;5.20;;;1.88;;
56519;SDS011;42420;53.586;10.052;2024-01-15T14:21:22;5.10;;;1.90;;
56519;SDS011;42420;53.586;10.052;2024-01-15T14:31:24;3.42;;;1.08;;
56519;SDS011;42420;53.586;10.052;2024-01-15T14:36:22;3.38;;;1.15;;
56519;SDS011;42420;53.586;10.052;2024-01-15T14:41:24;5.18;;;1.25;;
56519;SDS011;42420;53.586;10.052;2024-01-15T14:46:22;4.43;;;1.60;;
56519;SDS011;42420;53.586;10.052;2024-01-15T14:51:19;3.42;;;1.20;;
56519;SDS011;42420;53.586;10.052;2024-01-15T14:56:16;3.78;;;1.20;;
56519;SDS011;42420;53.586;10.052;2024-01-15T15:01:14;3.88;;;1.05;;
56519;SDS011;42420;53.586;10.052;2024-01-15T15:06:11;5.72;;;1.38;;
56519;SDS011;42420;53.586;10.052;2024-01-15T15:11:09;5.65;;;1.40;;
56519;SDS011;42420;53.586;10.052;2024-01-15T15:16:07;5.72;;;1.35;;
56519;SDS011;42420;53.586;10.052;2024-01-15T15:21:05;5.53;;;1.45;;
56519;SDS011;42420;53.586;10.052;2024-01-15T15:26:04;7.93;;;1.80;;
56519;SDS011;42420;53.586;10.052;2024-01-15T15:31:03;4.88;;;1.85;;
56519;SDS011;42420;53.586;10.052;2024-01-15T15:36:01;5.47;;;1.48;;
56519;SDS011;42420;53.586;10.052;2024-01-15T15:41:01;6.30;;;1.63;;
56519;SDS011;42420;53.586;10.052;2024-01-15T15:45:59;4.97;;;1.75;;
56519;SDS011;42420;53.586;10.052;2024-01-15T15:50:58;6.38;;;1.65;;
56519;SDS011;42420;53.586;10.052;2024-01-15T15:55:59;6.30;;;1.80;;
56519;SDS011;42420;53.586;10.052;2024-01-15T16:00:58;6.85;;;2.55;;
56519;SDS011;42420;53.586;10.052;2024-01-15T16:05:56;5.18;;;2.22;;
56519;SDS011;42420;53.586;10.052;2024-01-15T16:10:55;7.78;;;2.53;;
56519;SDS011;42420;53.586;10.052;2024-01-15T16:15:54;10.85;;;2.53;;
56519;SDS011;42420;53.586;10.052;2024-01-15T16:21:11;5.82;;;2.75;;
56519;SDS011;42420;53.586;10.052;2024-01-15T16:26:27;5.63;;;2.40;;
56519;SDS011;42420;53.586;10.052;2024-01-15T16:31:26;7.88;;;2.85;;
56519;SDS011;42420;53.586;10.052;2024-01-15T16:36:24;7.25;;;3.45;;
56519;SDS011;42420;53.586;10.052;2024-01-15T16:41:23;8.05;;;3.50;;
56519;SDS011;42420;53.586;10.052;2024-01-15T16:46:20;6.63;;;3.45;;
56519;SDS011;42420;53.586;10.052;2024-01-15T16:51:18;9.55;;;3.78;;
56519;SDS011;42420;53.586;10.052;2024-01-15T16:56:16;7.15;;;3.50;;
56519;SDS011;42420;53.586;10.052;2024-01-15T17:01:17;7.03;;;3.60;;
56519;SDS011;42420;53.586;10.052;2024-01-15T17:06:14;11.48;;;3.70;;
56519;SDS011;42420;53.586;10.052;2024-01-15T17:11:13;6.72;;;3.72;;
56519;SDS011;42420;53.586;10.052;2024-01-15T17:16:09;8.48;;;4.07;;
56519;SDS011;42420;53.586;10.052;2024-01-15T17:21:07;6.80;;;3.53;;
56519;SDS011;42420;53.586;10.052;2024-01-15T17:26:04;6.22;;;3.20;;
56519;SDS011;42420;53.586;10.052;2024-01-15T17:31:01;7.82;;;3.63;;
56519;SDS011;42420;53.586;10.052;2024-01-15T17:35:58;14.18;;;4.40;;
56519;SDS011;42420;53.586;10.052;2024-01-15T17:45:52;9.65;;;4.70;;
56519;SDS011;42420;53.586;10.052;2024-01-15T17:50:52;8.38;;;4.80;;
56519;SDS011;42420;53.586;10.052;2024-01-15T18:00:45;7.25;;;4.68;;
56519;SDS011;42420;53.586;10.052;2024-01-15T18:05:42;10.23;;;5.80;;
56519;SDS011;42420;53.586;10.052;2024-01-15T18:10:39;10.15;;;4.95;;
56519;SDS011;42420;53.586;10.052;2024-01-15T18:15:36;7.85;;;4.50;;
56519;SDS011;42420;53.586;10.052;2024-01-15T18:20:33;12.48;;;5.18;;
56519;SDS011;42420;53.586;10.052;2024-01-15T18:25:32;7.75;;;3.63;;
56519;SDS011;42420;53.586;10.052;2024-01-15T18:30:29;11.98;;;4.07;;
56519;SDS011;42420;53.586;10.052;2024-01-15T18:35:28;8.57;;;4.18;;
56519;SDS011;42420;53.586;10.052;2024-01-15T18:40:25;7.50;;;2.83;;
56519;SDS011;42420;53.586;10.052;2024-01-15T18:45:21;7.57;;;2.10;;
56519;SDS011;42420;53.586;10.052;2024-01-15T18:50:18;5.72;;;2.22;;
56519;SDS011;42420;53.586;10.052;2024-01-15T18:55:14;5.93;;;1.63;;
56519;SDS011;42420;53.586;10.052;2024-01-15T19:00:13;4.43;;;1.58;;
56519;SDS011;42420;53.586;10.052;2024-01-15T19:05:10;6.35;;;1.20;;
56519;SDS011;42420;53.586;10.052;2024-01-15T19:10:08;7.57;;;1.90;;
56519;SDS011;42420;53.586;10.052;2024-01-15T19:15:07;4.70;;;1.50;;
56519;SDS011;42420;53.586;10.052;2024-01-15T19:20:06;7.57;;;2.03;;
56519;SDS011;42420;53.586;10.052;2024-01-15T19:25:04;6.68;;;2.20;;
56519;SDS011;42420;53.586;10.052;2024-01-15T19:30:01;4.05;;;1.40;;
56519;SDS011;42420;53.586;10.052;2024-01-15T19:34:57;7.43;;;2.00;;
56519;SDS011;42420;53.586;10.052;2024-01-15T19:39:55;4.78;;;1.75;;
56519;SDS011;42420;53.586;10.052;2024-01-15T19:44:54;6.93;;;2.00;;
56519;SDS011;42420;53.586;10.052;2024-01-15T19:54:48;3.95;;;1.88;;
56519;SDS011;42420;53.586;10.052;2024-01-15T19:59:45;4.28;;;2.00;;
56519;SDS011;42420;53.586;10.052;2024-01-15T20:04:44;4.43;;;1.90;;
56519;SDS011;42420;53.586;10.052;2024-01-15T20:09:41;4.00;;;1.67;;
56519;SDS011;42420;53.586;10.052;2024-01-15T20:14:38;4.97;;;2.05;;
56519;SDS011;42420;53.586;10.052;2024-01-15T20:19:35;5.47;;;1.67;;
56519;SDS011;42420;53.586;10.052;2024-01-15T20:24:33;4.63;;;1.80;;
56519;SDS011;42420;53.586;10.052;2024-01-15T20:29:30;3.97;;;1.67;;
56519;SDS011;42420;53.586;10.052;2024-01-15T20:39:23;4.40;;;1.85;;
56519;SDS011;42420;53.586;10.052;2024-01-15T20:44:22;5.07;;;1.90;;
56519;SDS011;42420;53.586;10.052;2024-01-15T20:49:20;6.60;;;2.20;;
56519;SDS011;42420;53.586;10.052;2024-01-15T20:54:17;4.13;;;1.77;;
56519;SDS011;42420;53.586;10.052;2024-01-15T20:59:14;4.22;;;1.58;;
56519;SDS011;42420;53.586;10.052;2024-01-15T21:04:11;5.10;;;1.50;;
56519;SDS011;42420;53.586;10.052;2024-01-15T21:09:09;3.92;;;1.25;;
56519;SDS011;42420;53.586;10.052;2024-01-15T21:14:05;5.13;;;1.90;;
56519;SDS011;42420;53.586;10.052;2024-01-15T21:19:02;4.38;;;1.48;;
56519;SDS011;42420;53.586;10.052;2024-01-15T21:28:57;4.23;;;1.27;;
56519;SDS011;42420;53.586;10.052;2024-01-15T21:33:54;5.47;;;1.48;;
56519;SDS011;42420;53.586;10.052;2024-01-15T21:38:50;5.05;;;1.77;;
56519;SDS011;42420;53.586;10.052;2024-01-15T21:43:49;4.93;;;1.98;;
56519;SDS011;42420;53.586;10.052;2024-01-15T21:48:46;5.50;;;1.90;;
56519;SDS011;42420;53.586;10.052;2024-01-15T21:53:43;7.00;;;1.90;;
56519;SDS011;42420;53.586;10.052;2024-01-15T21:58:40;5.05;;;1.90;;
56519;SDS011;42420;53.586;10.052;2024-01-15T22:03:37;4.03;;;2.00;;
56519;SDS011;42420;53.586;10.052;2024-01-15T22:08:33;5.35;;;2.47;;
56519;SDS011;42420;53.586;10.052;2024-01-15T22:13:31;4.85;;;2.25;;
56519;SDS011;42420;53.586;10.052;2024-01-15T22:18:28;5.38;;;2.28;;
56519;SDS011;42420;53.586;10.052;2024-01-15T22:23:31;4.53;;;1.42;;
56519;SDS011;42420;53.586;10.052;2024-01-15T22:28:35;4.78;;;1.60;;
56519;SDS011;42420;53.586;10.052;2024-01-15T22:33:34;4.75;;;1.13;;
56519;SDS011;42420;53.586;10.052;2024-01-15T22:38:39;4.05;;;0.75;;
56519;SDS011;42420;53.586;10.052;2024-01-15T22:43:37;3.40;;;1.20;;
56519;SDS011;42420;53.586;10.052;2024-01-15T22:48:42;3.45;;;1.30;;
56519;SDS011;42420;53.586;10.052;2024-01-15T22:54:11;6.00;;;1.40;;
56519;SDS011;42420;53.586;10.052;2024-01-15T22:59:11;3.22;;;1.30;;
56519;SDS011;42420;53.586;10.052;2024-01-15T23:04:29;3.97;;;1.30;;
56519;SDS011;42420;53.586;10.052;2024-01-15T23:09:29;5.72;;;1.55;;
56519;SDS011;42420;53.586;10.052;2024-01-15T23:14:39;5.13;;;1.67;;
56519;SDS011;42420;53.586;10.052;2024-01-15T23:19:48;4.18;;;1.30;;
56519;SDS011;42420;53.586;10.052;2024-01-15T23:24:52;3.45;;;1.27;;
56519;SDS011;42420;53.586;10.052;2024-01-15T23:30:08;3.75;;;1.42;;
56519;SDS011;42420;53.586;10.052;2024-01-15T23:35:06;6.07;;;1.70;;
56519;SDS011;42420;53.586;10.052;2024-01-15T23:40:07;6.88;;;2.00;;
56519;SDS011;42420;53.586;10.052;2024-01-15T23:45:32;8.60;;;1.90;;
56519;SDS011;42420;53.586;10.052;2024-01-15T23:50:42;4.70;;;1.83;;
